Time,TemperatureF,DewpointF,PressureIn,WindDirection,WindDirectionDegrees,WindSpeedMPH,WindSpeedGustMPH,Humidity,HourlyPrecipIn,Conditions,Clouds,dailyrainin,SoftwareType,DateUTC
2013-05-03 00:01:00,60.4,41.7,30.38,West,281,6.0,16.0,50,0.00,,,0.00,meteohub,2013-05-03 04:01:00,
2013-05-03 00:02:00,60.4,42.3,30.37,West,277,5.0,16.0,51,0.00,,,0.00,meteohub,2013-05-03 04:02:00,
2013-05-03 00:04:00,60.3,42.1,30.38,WSW,243,8.0,16.0,51,0.00,,,0.00,meteohub,2013-05-03 04:04:00,
2013-05-03 00:09:00,60.3,42.1,30.38,SW,220,6.0,16.0,51,0.00,,,0.00,meteohub,2013-05-03 04:09:00,
2013-05-03 00:15:00,60.1,42.4,30.38,SW,222,4.0,16.0,52,0.00,,,0.00,meteohub,2013-05-03 04:15:00,
2013-05-03 00:20:00,59.9,42.8,30.39,SW,217,5.0,12.0,53,0.00,,,0.00,meteohub,2013-05-03 04:20:00,
2013-05-03 00:25:00,59.7,43.0,30.39,SW,230,4.0,14.0,54,0.00,,,0.00,meteohub,2013-05-03 04:25:00,
2013-05-03 00:30:00,59.5,42.8,30.38,WSW,245,3.0,14.0,54,0.00,,,0.00,meteohub,2013-05-03 04:30:00,
2013-05-03 00:35:00,59.4,43.7,30.39,SSW,204,2.0,10.0,56,0.00,,,0.00,meteohub,2013-05-03 04:35:00,
2013-05-03 00:40:00,59.2,43.9,30.39,WSW,243,4.0,9.0,57,0.00,,,0.00,meteohub,2013-05-03 04:40:00,
2013-05-03 00:45:00,58.6,43.5,30.40,SW,229,11.0,16.0,57,0.00,,,0.00,meteohub,2013-05-03 04:45:00,
2013-05-03 00:50:00,58.5,43.7,30.39,SSW,196,9.0,16.0,58,0.00,,,0.00,meteohub,2013-05-03 04:50:00,
2013-05-03 00:56:00,58.3,43.5,30.40,SW,236,7.0,16.0,58,0.00,,,0.00,meteohub,2013-05-03 04:56:00,
2013-05-03 01:01:00,58.1,43.3,30.40,WSW,251,5.0,13.0,58,0.00,,,0.00,meteohub,2013-05-03 05:01:00,
2013-05-03 01:06:00,57.7,43.5,30.40,WSW,244,0.0,15.0,59,0.00,,,0.00,meteohub,2013-05-03 05:06:00,
2013-05-03 01:12:00,57.6,43.3,30.40,South,179,6.0,15.0,59,0.00,,,0.00,meteohub,2013-05-03 05:12:00,
2013-05-03 01:17:00,57.2,43.0,30.40,SSE,163,3.0,15.0,59,0.00,,,0.00,meteohub,2013-05-03 05:17:00,
2013-05-03 01:22:00,57.0,42.8,30.40,SSE,161,1.0,12.0,59,0.00,,,0.00,meteohub,2013-05-03 05:22:00,
2013-05-03 01:27:00,56.8,43.2,30.40,SSE,152,0.0,12.0,60,0.00,,,0.00,meteohub,2013-05-03 05:27:00,
2013-05-03 01:32:00,56.7,43.0,30.40,South,176,0.0,8.0,60,0.00,,,0.00,meteohub,2013-05-03 05:32:00,
2013-05-03 01:37:00,56.7,43.0,30.40,SW,221,3.0,7.0,60,0.00,,,0.00,meteohub,2013-05-03 05:37:00,
2013-05-03 01:42:00,56.5,42.8,30.40,SSE,154,4.0,9.0,60,0.00,,,0.00,meteohub,2013-05-03 05:42:00,
2013-05-03 01:47:00,56.5,42.8,30.40,WSW,240,2.0,9.0,60,0.00,,,0.00,meteohub,2013-05-03 05:47:00,
2013-05-03 01:53:00,56.5,42.8,30.40,SW,216,1.0,7.0,60,0.00,,,0.00,meteohub,2013-05-03 05:53:00,
2013-05-03 01:58:00,56.5,43.2,30.40,East,79,0.0,7.0,61,0.00,,,0.00,meteohub,2013-05-03 05:58:00,
2013-05-03 02:03:00,56.3,43.0,30.40,SW,226,4.0,5.0,61,0.00,,,0.00,meteohub,2013-05-03 06:03:00,
2013-05-03 02:08:00,56.1,43.3,30.40,NE,54,0.0,5.0,62,0.00,,,0.00,meteohub,2013-05-03 06:08:00,
2013-05-03 02:13:00,56.1,42.8,30.40,SW,216,0.0,5.0,61,0.00,,,0.00,meteohub,2013-05-03 06:13:00,
2013-05-03 02:18:00,55.9,42.3,30.40,East,92,0.0,5.0,60,0.00,,,0.00,meteohub,2013-05-03 06:18:00,
2013-05-03 02:23:00,55.9,42.3,30.40,South,170,3.0,5.0,60,0.00,,,0.00,meteohub,2013-05-03 06:23:00,
2013-05-03 02:28:00,55.8,41.7,30.40,South,184,0.0,5.0,59,0.00,,,0.00,meteohub,2013-05-03 06:28:00,
2013-05-03 02:34:00,55.8,41.7,30.40,ENE,59,0.0,4.0,59,0.00,,,0.00,meteohub,2013-05-03 06:34:00,
2013-05-03 02:39:00,55.8,41.2,30.40,SSE,165,1.0,6.0,58,0.00,,,0.00,meteohub,2013-05-03 06:39:00,
2013-05-03 02:44:00,55.6,41.0,30.40,SSE,166,0.0,6.0,58,0.00,,,0.00,meteohub,2013-05-03 06:44:00,
2013-05-03 02:50:00,55.6,41.5,30.41,SSE,154,3.0,6.0,59,0.00,,,0.00,meteohub,2013-05-03 06:50:00,
2013-05-03 02:55:00,55.4,41.4,30.41,South,179,2.0,6.0,59,0.00,,,0.00,meteohub,2013-05-03 06:55:00,
2013-05-03 03:00:00,55.4,41.4,30.41,SSE,165,0.0,9.0,59,0.00,,,0.00,meteohub,2013-05-03 07:00:00,
2013-05-03 03:05:00,55.2,41.2,30.41,SSE,156,1.0,9.0,59,0.00,,,0.00,meteohub,2013-05-03 07:05:00,
2013-05-03 03:10:00,55.2,40.6,30.41,WSW,243,0.0,9.0,58,0.00,,,0.00,meteohub,2013-05-03 07:10:00,
2013-05-03 03:15:00,55.2,41.2,30.41,SW,233,3.0,9.0,59,0.00,,,0.00,meteohub,2013-05-03 07:15:00,
2013-05-03 03:20:00,55.2,41.2,30.41,SSW,206,6.0,9.0,59,0.00,,,0.00,meteohub,2013-05-03 07:20:00,
2013-05-03 03:25:00,55.2,41.2,30.41,South,177,2.0,9.0,59,0.00,,,0.00,meteohub,2013-05-03 07:25:00,
2013-05-03 03:30:00,55.0,41.0,30.41,WSW,237,5.0,9.0,59,0.00,,,0.00,meteohub,2013-05-03 07:30:00,
2013-05-03 03:36:00,55.0,41.0,30.42,SSW,194,1.0,8.0,59,0.00,,,0.00,meteohub,2013-05-03 07:36:00,
2013-05-03 03:41:00,54.9,40.8,30.41,SW,224,5.0,8.0,59,0.00,,,0.00,meteohub,2013-05-03 07:41:00,
2013-05-03 03:46:00,54.7,40.3,30.42,SE,146,7.0,7.0,58,0.00,,,0.00,meteohub,2013-05-03 07:46:00,
2013-05-03 03:51:00,54.7,39.7,30.42,SW,223,3.0,9.0,57,0.00,,,0.00,meteohub,2013-05-03 07:51:00,
2013-05-03 03:56:00,54.3,39.0,30.42,SW,233,1.0,9.0,56,0.00,,,0.00,meteohub,2013-05-03 07:56:00,
2013-05-03 04:03:00,54.1,37.4,30.42,WSW,244,6.0,9.0,53,0.00,,,0.00,meteohub,2013-05-03 08:03:00,
2013-05-03 04:08:00,54.0,37.2,30.42,SW,228,6.0,8.0,53,0.00,,,0.00,meteohub,2013-05-03 08:08:00,
2013-05-03 04:13:00,53.8,37.0,30.43,WNW,285,5.0,9.0,53,0.00,,,0.00,meteohub,2013-05-03 08:13:00,
2013-05-03 04:18:00,53.4,35.2,30.43,South,190,2.0,9.0,50,0.00,,,0.00,meteohub,2013-05-03 08:18:00,
2013-05-03 04:23:00,53.2,34.0,30.43,SW,227,8.0,9.0,48,0.00,,,0.00,meteohub,2013-05-03 08:23:00,
2013-05-03 04:28:00,53.1,32.4,30.44,SW,227,8.0,12.0,45,0.00,,,0.00,meteohub,2013-05-03 08:28:00,
2013-05-03 04:34:00,52.9,31.6,30.43,WSW,254,1.0,12.0,44,0.00,,,0.00,meteohub,2013-05-03 08:34:00,
2013-05-03 04:39:00,52.5,30.7,30.44,SW,233,5.0,12.0,43,0.00,,,0.00,meteohub,2013-05-03 08:39:00,
2013-05-03 04:44:00,52.3,30.6,30.44,South,177,8.0,9.0,43,0.00,,,0.00,meteohub,2013-05-03 08:44:00,
2013-05-03 04:50:00,52.2,29.8,30.44,WSW,244,5.0,9.0,42,0.00,,,0.00,meteohub,2013-05-03 08:50:00,
2013-05-03 04:55:00,51.8,29.5,30.45,WSW,254,7.0,11.0,42,0.00,,,0.00,meteohub,2013-05-03 08:55:00,
2013-05-03 05:00:00,51.6,29.3,30.45,WSW,253,5.0,11.0,42,0.00,,,0.00,meteohub,2013-05-03 09:00:00,
2013-05-03 05:05:00,51.6,29.8,30.45,ESE,102,1.0,11.0,43,0.00,,,0.00,meteohub,2013-05-03 09:05:00,
2013-05-03 05:10:00,51.4,29.1,30.45,SSW,208,3.0,9.0,42,0.00,,,0.00,meteohub,2013-05-03 09:10:00,
2013-05-03 05:15:00,51.3,29.5,30.45,ESE,102,0.0,9.0,43,0.00,,,0.00,meteohub,2013-05-03 09:15:00,
2013-05-03 05:20:00,51.3,30.0,30.45,SE,144,3.0,8.0,44,0.00,,,0.00,meteohub,2013-05-03 09:20:00,
2013-05-03 05:26:00,51.1,29.8,30.45,SE,145,0.0,8.0,44,0.00,,,0.00,meteohub,2013-05-03 09:26:00,
2013-05-03 05:31:00,50.9,29.8,30.45,ENE,71,1.0,9.0,44,0.00,,,0.00,meteohub,2013-05-03 09:31:00,
2013-05-03 05:36:00,50.7,29.7,30.45,SW,230,5.0,9.0,44,0.00,,,0.00,meteohub,2013-05-03 09:36:00,
2013-05-03 05:41:00,50.5,29.5,30.46,SW,229,1.0,6.0,44,0.00,,,0.00,meteohub,2013-05-03 09:41:00,
2013-05-03 05:47:00,50.4,29.8,30.45,South,173,1.0,6.0,45,0.00,,,0.00,meteohub,2013-05-03 09:47:00,
2013-05-03 05:52:00,50.4,30.4,30.45,SW,225,0.0,6.0,46,0.00,,,0.00,meteohub,2013-05-03 09:52:00,
2013-05-03 05:57:00,50.2,30.2,30.46,SW,225,1.0,6.0,46,0.00,,,0.00,meteohub,2013-05-03 09:57:00,
2013-05-03 06:02:00,50.2,30.7,30.46,SSE,154,2.0,5.0,47,0.00,,,0.00,meteohub,2013-05-03 10:02:00,
2013-05-03 06:07:00,50.0,30.6,30.46,SW,233,2.0,5.0,47,0.00,,,0.00,meteohub,2013-05-03 10:07:00,
2013-05-03 06:13:00,49.8,30.9,30.46,SSW,213,0.0,5.0,48,0.00,,,0.00,meteohub,2013-05-03 10:13:00,
2013-05-03 06:18:00,49.8,30.9,30.46,SSE,156,0.0,7.0,48,0.00,,,0.00,meteohub,2013-05-03 10:18:00,
2013-05-03 06:23:00,49.6,31.3,30.46,South,176,0.0,7.0,49,0.00,,,0.00,meteohub,2013-05-03 10:23:00,
2013-05-03 06:28:00,49.8,31.5,30.46,South,181,3.0,7.0,49,0.00,,,0.00,meteohub,2013-05-03 10:28:00,
2013-05-03 06:34:00,49.8,31.5,30.46,SW,230,0.0,7.0,49,0.00,,,0.00,meteohub,2013-05-03 10:34:00,
2013-05-03 06:39:00,49.6,31.8,30.46,South,191,1.0,7.0,50,0.00,,,0.00,meteohub,2013-05-03 10:39:00,
2013-05-03 06:44:00,49.3,31.5,30.46,SW,233,0.0,6.0,50,0.00,,,0.00,meteohub,2013-05-03 10:44:00,
2013-05-03 06:50:00,49.3,32.0,30.46,SW,234,0.0,6.0,51,0.00,,,0.00,meteohub,2013-05-03 10:50:00,
2013-05-03 06:56:00,48.9,31.6,30.46,SSE,160,0.0,5.0,51,0.00,,,0.00,meteohub,2013-05-03 10:56:00,
2013-05-03 07:01:00,48.7,31.5,30.46,South,173,0.0,5.0,51,0.00,,,0.00,meteohub,2013-05-03 11:01:00,
2013-05-03 07:06:00,48.7,31.8,30.47,SSE,147,0.0,5.0,52,0.00,,,0.00,meteohub,2013-05-03 11:06:00,
2013-05-03 07:12:00,48.7,32.9,30.46,SSE,151,0.0,4.0,54,0.00,,,0.00,meteohub,2013-05-03 11:12:00,
2013-05-03 07:17:00,48.4,32.5,30.46,SSE,151,0.0,3.0,54,0.00,,,0.00,meteohub,2013-05-03 11:17:00,
2013-05-03 07:23:00,48.4,33.4,30.46,SSE,151,0.0,2.0,56,0.00,,,0.00,meteohub,2013-05-03 11:23:00,
2013-05-03 07:28:00,48.0,33.4,30.46,SSE,151,0.0,2.0,57,0.00,,,0.00,meteohub,2013-05-03 11:28:00,
2013-05-03 07:33:00,48.0,32.5,30.46,SSE,153,0.0,1.0,55,0.00,,,0.00,meteohub,2013-05-03 11:33:00,
2013-05-03 07:38:00,48.6,33.6,30.46,WNW,302,0.0,6.0,56,0.00,,,0.00,meteohub,2013-05-03 11:38:00,
2013-05-03 07:44:00,48.9,33.1,30.46,West,264,0.0,6.0,54,0.00,,,0.00,meteohub,2013-05-03 11:44:00,
2013-05-03 07:49:00,49.5,33.1,30.46,SSW,212,0.0,5.0,53,0.00,,,0.00,meteohub,2013-05-03 11:49:00,
2013-05-03 07:54:00,50.0,33.6,30.46,SSE,161,0.0,5.0,53,0.00,,,0.00,meteohub,2013-05-03 11:54:00,
2013-05-03 07:59:00,50.4,34.3,30.46,SSE,161,0.0,5.0,54,0.00,,,0.00,meteohub,2013-05-03 11:59:00,
2013-05-03 08:04:00,50.7,34.2,30.46,ENE,65,0.0,5.0,53,0.00,,,0.00,meteohub,2013-05-03 12:04:00,
2013-05-03 08:09:00,51.1,35.1,30.46,SSW,212,0.0,5.0,54,0.00,,,0.00,meteohub,2013-05-03 12:09:00,
2013-05-03 08:15:00,51.3,33.8,30.46,South,190,0.0,3.0,51,0.00,,,0.00,meteohub,2013-05-03 12:15:00,
2013-05-03 08:20:00,51.6,34.2,30.46,SSE,165,0.0,4.0,51,0.00,,,0.00,meteohub,2013-05-03 12:20:00,
2013-05-03 08:25:00,51.4,32.9,30.46,NNW,343,0.0,8.0,49,0.00,,,0.00,meteohub,2013-05-03 12:25:00,
2013-05-03 08:31:00,51.6,33.6,30.46,SSW,202,0.0,8.0,50,0.00,,,0.00,meteohub,2013-05-03 12:31:00,
2013-05-03 08:36:00,52.2,35.1,30.46,East,99,0.0,4.0,52,0.00,,,0.00,meteohub,2013-05-03 12:36:00,
2013-05-03 08:41:00,52.3,34.2,30.46,SSW,213,3.0,4.0,50,0.00,,,0.00,meteohub,2013-05-03 12:41:00,
2013-05-03 08:47:00,52.3,33.8,30.46,WSW,256,0.0,5.0,49,0.00,,,0.00,meteohub,2013-05-03 12:47:00,
2013-05-03 08:52:00,52.9,35.2,30.45,ESE,105,0.0,5.0,51,0.00,,,0.00,meteohub,2013-05-03 12:52:00,
2013-05-03 08:57:00,53.1,34.3,30.46,SSE,167,4.0,4.0,49,0.00,,,0.00,meteohub,2013-05-03 12:57:00,
2013-05-03 09:02:00,53.4,35.2,30.45,WSW,251,0.0,7.0,50,0.00,,,0.00,meteohub,2013-05-03 13:02:00,
2013-05-03 09:07:00,53.4,35.2,30.45,South,171,0.0,7.0,50,0.00,,,0.00,meteohub,2013-05-03 13:07:00,
2013-05-03 09:12:00,54.1,36.3,30.45,East,90,1.0,7.0,51,0.00,,,0.00,meteohub,2013-05-03 13:12:00,
2013-05-03 09:17:00,54.9,35.6,30.45,SW,216,4.0,5.0,48,0.00,,,0.00,meteohub,2013-05-03 13:17:00,
2013-05-03 09:22:00,54.9,35.6,30.45,North,6,0.0,4.0,48,0.00,,,0.00,meteohub,2013-05-03 13:22:00,
2013-05-03 09:27:00,55.0,34.2,30.45,NNW,333,0.0,4.0,45,0.00,,,0.00,meteohub,2013-05-03 13:27:00,
2013-05-03 09:32:00,55.2,34.9,30.45,NNW,331,1.0,4.0,46,0.00,,,0.00,meteohub,2013-05-03 13:32:00,
2013-05-03 09:37:00,55.6,34.0,30.45,SW,227,3.0,6.0,44,0.00,,,0.00,meteohub,2013-05-03 13:37:00,
2013-05-03 09:42:00,55.4,35.4,30.45,SSW,196,0.0,7.0,47,0.00,,,0.00,meteohub,2013-05-03 13:42:00,
2013-05-03 09:47:00,56.3,36.3,30.45,East,92,4.0,7.0,47,0.00,,,0.00,meteohub,2013-05-03 13:47:00,
2013-05-03 09:52:00,57.0,35.2,30.45,ENE,65,0.0,7.0,44,0.00,,,0.00,meteohub,2013-05-03 13:52:00,
2013-05-03 09:58:00,57.7,35.4,30.45,SSE,159,0.0,7.0,43,0.00,,,0.00,meteohub,2013-05-03 13:58:00,
2013-05-03 10:03:00,57.4,35.1,30.45,South,169,1.0,8.0,43,0.00,,,0.00,meteohub,2013-05-03 14:03:00,
2013-05-03 10:08:00,57.2,32.5,30.45,WSW,252,6.0,8.0,39,0.00,,,0.00,meteohub,2013-05-03 14:08:00,
2013-05-03 10:13:00,56.7,34.3,30.45,South,170,2.0,9.0,43,0.00,,,0.00,meteohub,2013-05-03 14:13:00,
2013-05-03 10:18:00,57.0,33.6,30.45,South,171,6.0,9.0,41,0.00,,,0.00,meteohub,2013-05-03 14:18:00,
2013-05-03 10:23:00,57.4,33.3,30.45,East,80,1.0,9.0,40,0.00,,,0.00,meteohub,2013-05-03 14:23:00,
2013-05-03 10:28:00,57.6,32.7,30.44,North,350,3.0,10.0,39,0.00,,,0.00,meteohub,2013-05-03 14:28:00,
2013-05-03 10:33:00,57.9,34.9,30.44,ESE,117,0.0,10.0,42,0.00,,,0.00,meteohub,2013-05-03 14:33:00,
2013-05-03 10:38:00,58.3,33.4,30.44,WSW,244,3.0,6.0,39,0.00,,,0.00,meteohub,2013-05-03 14:38:00,
2013-05-03 10:43:00,58.5,36.7,30.44,ESE,108,2.0,6.0,44,0.00,,,0.00,meteohub,2013-05-03 14:43:00,
2013-05-03 10:48:00,58.8,34.5,30.44,SSE,163,0.0,6.0,40,0.00,,,0.00,meteohub,2013-05-03 14:48:00,
2013-05-03 10:53:00,59.2,35.4,30.44,SSE,166,0.0,7.0,41,0.00,,,0.00,meteohub,2013-05-03 14:53:00,
2013-05-03 10:58:00,59.2,33.6,30.44,WSW,246,2.0,7.0,38,0.00,,,0.00,meteohub,2013-05-03 14:58:00,
2013-05-03 11:03:00,59.2,34.9,30.43,South,181,0.0,9.0,40,0.00,,,0.00,meteohub,2013-05-03 15:03:00,
2013-05-03 11:08:00,60.1,35.6,30.43,SSE,166,3.0,9.0,40,0.00,,,0.00,meteohub,2013-05-03 15:08:00,
2013-05-03 11:13:00,60.6,36.9,30.43,East,86,4.0,7.0,41,0.00,,,0.00,meteohub,2013-05-03 15:13:00,
2013-05-03 11:19:00,61.2,34.7,30.43,SW,234,6.0,7.0,37,0.00,,,0.00,meteohub,2013-05-03 15:19:00,
2013-05-03 11:24:00,59.5,35.8,30.43,SSE,161,3.0,8.0,41,0.00,,,0.00,meteohub,2013-05-03 15:24:00,
2013-05-03 11:29:00,60.4,36.0,30.43,NNW,333,2.0,8.0,40,0.00,,,0.00,meteohub,2013-05-03 15:29:00,
2013-05-03 11:34:00,60.6,34.9,30.42,WSW,249,8.0,9.0,38,0.00,,,0.00,meteohub,2013-05-03 15:34:00,
2013-05-03 11:39:00,60.4,33.4,30.42,East,79,0.0,9.0,36,0.00,,,0.00,meteohub,2013-05-03 15:39:00,
2013-05-03 11:44:00,61.2,34.0,30.42,SW,230,1.0,12.0,36,0.00,,,0.00,meteohub,2013-05-03 15:44:00,
2013-05-03 11:49:00,61.9,38.5,30.42,SSE,166,4.0,12.0,42,0.00,,,0.00,meteohub,2013-05-03 15:49:00,
2013-05-03 11:54:00,62.6,37.2,30.42,SSW,196,2.0,6.0,39,0.00,,,0.00,meteohub,2013-05-03 15:54:00,
2013-05-03 11:59:00,62.4,35.1,30.42,ENE,75,4.0,6.0,36,0.00,,,0.00,meteohub,2013-05-03 15:59:00,
2013-05-03 12:04:00,62.6,34.5,30.41,SE,139,3.0,7.0,35,0.00,,,0.00,meteohub,2013-05-03 16:04:00,
2013-05-03 12:09:00,62.4,32.9,30.41,SW,221,4.0,7.0,33,0.00,,,0.00,meteohub,2013-05-03 16:09:00,
2013-05-03 12:14:00,62.1,37.4,30.41,East,98,1.0,7.0,40,0.00,,,0.00,meteohub,2013-05-03 16:14:00,
2013-05-03 12:19:00,62.4,32.9,30.40,WSW,240,4.0,8.0,33,0.00,,,0.00,meteohub,2013-05-03 16:19:00,
2013-05-03 12:24:00,62.8,38.7,30.40,East,79,0.0,12.0,41,0.00,,,0.00,meteohub,2013-05-03 16:24:00,
2013-05-03 12:30:00,62.8,33.3,30.40,SW,220,5.0,12.0,33,0.00,,,0.00,meteohub,2013-05-03 16:30:00,
2013-05-03 12:35:00,63.0,36.3,30.40,South,173,8.0,12.0,37,0.00,,,0.00,meteohub,2013-05-03 16:35:00,
2013-05-03 12:40:00,63.3,35.2,30.40,South,174,0.0,11.0,35,0.00,,,0.00,meteohub,2013-05-03 16:40:00,
2013-05-03 12:45:00,64.0,39.2,30.40,East,81,5.0,11.0,40,0.00,,,0.00,meteohub,2013-05-03 16:45:00,
2013-05-03 12:51:00,64.8,36.5,30.40,South,173,3.0,9.0,35,0.00,,,0.00,meteohub,2013-05-03 16:51:00,
2013-05-03 12:56:00,64.6,34.0,30.40,South,189,1.0,7.0,32,0.00,,,0.00,meteohub,2013-05-03 16:56:00,
2013-05-03 13:01:00,64.9,39.4,30.39,SSE,161,5.0,7.0,39,0.00,,,0.00,meteohub,2013-05-03 17:01:00,
2013-05-03 13:06:00,65.8,36.0,30.39,South,189,2.0,9.0,33,0.00,,,0.00,meteohub,2013-05-03 17:06:00,
2013-05-03 13:11:00,64.9,37.4,30.39,West,268,2.0,9.0,36,0.00,,,0.00,meteohub,2013-05-03 17:11:00,
2013-05-03 13:16:00,64.6,34.9,30.39,SSE,152,7.0,9.0,33,0.00,,,0.00,meteohub,2013-05-03 17:16:00,
2013-05-03 13:21:00,65.7,36.5,30.39,SSE,161,7.0,10.0,34,0.00,,,0.00,meteohub,2013-05-03 17:21:00,
2013-05-03 13:26:00,65.8,33.6,30.39,SW,221,6.0,13.0,30,0.00,,,0.00,meteohub,2013-05-03 17:26:00,
2013-05-03 13:31:00,65.1,33.8,30.38,SW,217,0.0,13.0,31,0.00,,,0.00,meteohub,2013-05-03 17:31:00,
2013-05-03 13:36:00,65.7,35.8,30.38,South,180,7.0,13.0,33,0.00,,,0.00,meteohub,2013-05-03 17:36:00,
2013-05-03 13:41:00,64.9,36.0,30.38,SSE,168,5.0,14.0,34,0.00,,,0.00,meteohub,2013-05-03 17:41:00,
2013-05-03 13:46:00,65.7,35.8,30.38,South,187,4.0,14.0,33,0.00,,,0.00,meteohub,2013-05-03 17:46:00,
2013-05-03 13:51:00,64.2,34.5,30.38,ENE,67,1.0,14.0,33,0.00,,,0.00,meteohub,2013-05-03 17:51:00,
2013-05-03 13:56:00,65.1,36.1,30.38,SSW,192,0.0,12.0,34,0.00,,,0.00,meteohub,2013-05-03 17:56:00,
2013-05-03 14:02:00,65.8,34.3,30.38,WSW,251,0.0,12.0,31,0.00,,,0.00,meteohub,2013-05-03 18:02:00,
2013-05-03 14:07:00,66.6,37.4,30.37,WNW,302,1.0,9.0,34,0.00,,,0.00,meteohub,2013-05-03 18:07:00,
2013-05-03 14:12:00,66.6,35.1,30.37,WSW,241,1.0,9.0,31,0.00,,,0.00,meteohub,2013-05-03 18:12:00,
2013-05-03 14:17:00,67.1,35.4,30.37,South,184,0.0,9.0,31,0.00,,,0.00,meteohub,2013-05-03 18:17:00,
2013-05-03 14:22:00,67.1,34.7,30.37,SSE,167,6.0,11.0,30,0.00,,,0.00,meteohub,2013-05-03 18:22:00,
2013-05-03 14:27:00,66.7,36.7,30.37,WSW,246,4.0,11.0,33,0.00,,,0.00,meteohub,2013-05-03 18:27:00,
2013-05-03 14:32:00,66.6,38.8,30.37,SSE,166,1.0,11.0,36,0.00,,,0.00,meteohub,2013-05-03 18:32:00,
2013-05-03 14:37:00,67.5,32.4,30.37,South,177,3.0,9.0,27,0.00,,,0.00,meteohub,2013-05-03 18:37:00,
2013-05-03 14:42:00,67.1,32.0,30.37,South,170,5.0,9.0,27,0.00,,,0.00,meteohub,2013-05-03 18:42:00,
2013-05-03 14:47:00,67.3,33.1,30.36,SSE,162,4.0,9.0,28,0.00,,,0.00,meteohub,2013-05-03 18:47:00,
2013-05-03 14:52:00,67.5,31.5,30.36,South,187,2.0,9.0,26,0.00,,,0.00,meteohub,2013-05-03 18:52:00,
2013-05-03 14:57:00,68.4,36.5,30.37,SW,229,6.0,9.0,31,0.00,,,0.00,meteohub,2013-05-03 18:57:00,
2013-05-03 15:02:00,67.6,31.5,30.36,South,181,1.0,10.0,26,0.00,,,0.00,meteohub,2013-05-03 19:02:00,
2013-05-03 15:07:00,67.8,29.7,30.36,SW,231,5.0,13.0,24,0.00,,,0.00,meteohub,2013-05-03 19:07:00,
2013-05-03 15:12:00,67.6,34.2,30.36,East,100,4.0,13.0,29,0.00,,,0.00,meteohub,2013-05-03 19:12:00,
2013-05-03 15:17:00,69.1,36.3,30.36,East,98,1.0,11.0,30,0.00,,,0.00,meteohub,2013-05-03 19:17:00,
2013-05-03 15:22:00,70.2,35.6,30.35,South,172,3.0,10.0,28,0.00,,,0.00,meteohub,2013-05-03 19:22:00,
2013-05-03 15:27:00,70.9,37.0,30.35,ESE,122,1.0,10.0,29,0.00,,,0.00,meteohub,2013-05-03 19:27:00,
2013-05-03 15:32:00,67.8,29.7,30.35,SW,233,1.0,8.0,24,0.00,,,0.00,meteohub,2013-05-03 19:32:00,
2013-05-03 15:37:00,67.5,37.4,30.35,SSE,148,4.0,8.0,33,0.00,,,0.00,meteohub,2013-05-03 19:37:00,
2013-05-03 15:42:00,68.2,32.0,30.35,SSW,210,2.0,8.0,26,0.00,,,0.00,meteohub,2013-05-03 19:42:00,
2013-05-03 15:47:00,67.3,33.1,30.35,SW,235,1.0,11.0,28,0.00,,,0.00,meteohub,2013-05-03 19:47:00,
2013-05-03 15:52:00,68.4,36.5,30.34,SW,229,5.0,11.0,31,0.00,,,0.00,meteohub,2013-05-03 19:52:00,
2013-05-03 15:57:00,68.4,34.0,30.34,SE,144,3.0,9.0,28,0.00,,,0.00,meteohub,2013-05-03 19:57:00,
2013-05-03 16:02:00,69.3,35.6,30.34,South,169,4.0,9.0,29,0.00,,,0.00,meteohub,2013-05-03 20:02:00,
2013-05-03 16:07:00,69.6,30.2,30.34,SSW,193,3.0,9.0,23,0.00,,,0.00,meteohub,2013-05-03 20:07:00,
2013-05-03 16:12:00,68.7,31.5,30.34,SW,218,6.0,9.0,25,0.00,,,0.00,meteohub,2013-05-03 20:12:00,
2013-05-03 16:17:00,67.8,31.6,30.34,SSW,194,4.0,9.0,26,0.00,,,0.00,meteohub,2013-05-03 20:17:00,
2013-05-03 16:22:00,68.2,33.8,30.34,SE,144,2.0,9.0,28,0.00,,,0.00,meteohub,2013-05-03 20:22:00,
2013-05-03 16:27:00,68.7,32.4,30.34,South,181,1.0,8.0,26,0.00,,,0.00,meteohub,2013-05-03 20:27:00,
2013-05-03 16:32:00,68.4,32.2,30.34,WSW,246,5.0,8.0,26,0.00,,,0.00,meteohub,2013-05-03 20:32:00,
2013-05-03 16:37:00,67.3,33.1,30.34,SW,235,3.0,8.0,28,0.00,,,0.00,meteohub,2013-05-03 20:37:00,
2013-05-03 16:42:00,66.7,30.7,30.34,SW,214,2.0,8.0,26,0.00,,,0.00,meteohub,2013-05-03 20:42:00,
2013-05-03 16:47:00,67.3,32.2,30.34,WSW,246,6.0,8.0,27,0.00,,,0.00,meteohub,2013-05-03 20:47:00,
2013-05-03 16:52:00,67.3,30.2,30.34,WSW,250,4.0,12.0,25,0.00,,,0.00,meteohub,2013-05-03 20:52:00,
2013-05-03 16:57:00,66.4,31.5,30.34,WSW,248,6.0,12.0,27,0.00,,,0.00,meteohub,2013-05-03 20:57:00,
2013-05-03 17:02:00,66.7,30.7,30.34,SW,214,0.0,12.0,26,0.00,,,0.00,meteohub,2013-05-03 21:02:00,
2013-05-03 17:07:00,66.6,30.6,30.34,SW,228,2.0,8.0,26,0.00,,,0.00,meteohub,2013-05-03 21:07:00,
2013-05-03 17:12:00,66.4,33.1,30.34,SSE,156,4.0,8.0,29,0.00,,,0.00,meteohub,2013-05-03 21:12:00,
2013-05-03 17:17:00,66.7,31.6,30.33,South,189,4.0,6.0,27,0.00,,,0.00,meteohub,2013-05-03 21:17:00,
2013-05-03 17:22:00,66.9,31.8,30.33,WSW,250,3.0,5.0,27,0.00,,,0.00,meteohub,2013-05-03 21:22:00,
2013-05-03 17:27:00,66.4,32.4,30.33,SSE,158,0.0,7.0,28,0.00,,,0.00,meteohub,2013-05-03 21:27:00,
2013-05-03 17:32:00,65.8,28.9,30.33,West,281,6.0,7.0,25,0.00,,,0.00,meteohub,2013-05-03 21:32:00,
2013-05-03 17:37:00,65.5,31.5,30.33,SW,236,3.0,8.0,28,0.00,,,0.00,meteohub,2013-05-03 21:37:00,
2013-05-03 17:42:00,65.1,29.3,30.33,SW,232,4.0,8.0,26,0.00,,,0.00,meteohub,2013-05-03 21:42:00,
2013-05-03 17:47:00,65.1,30.4,30.33,WSW,239,4.0,8.0,27,0.00,,,0.00,meteohub,2013-05-03 21:47:00,
2013-05-03 17:52:00,64.9,29.3,30.33,WSW,258,2.0,8.0,26,0.00,,,0.00,meteohub,2013-05-03 21:52:00,
2013-05-03 17:57:00,65.1,30.4,30.33,West,260,2.0,7.0,27,0.00,,,0.00,meteohub,2013-05-03 21:57:00,
2013-05-03 18:02:00,64.8,33.4,30.33,West,261,2.0,7.0,31,0.00,,,0.00,meteohub,2013-05-03 22:02:00,
2013-05-03 18:07:00,64.6,30.7,30.33,SSE,151,0.0,7.0,28,0.00,,,0.00,meteohub,2013-05-03 22:07:00,
2013-05-03 18:12:00,64.2,29.5,30.33,WSW,237,0.0,7.0,27,0.00,,,0.00,meteohub,2013-05-03 22:12:00,
2013-05-03 18:17:00,63.0,31.8,30.33,SW,218,4.0,7.0,31,0.00,,,0.00,meteohub,2013-05-03 22:17:00,
2013-05-03 18:22:00,61.9,31.6,30.33,SSE,156,1.0,4.0,32,0.00,,,0.00,meteohub,2013-05-03 22:22:00,
2013-05-03 18:27:00,61.9,31.6,30.33,SW,230,1.0,5.0,32,0.00,,,0.00,meteohub,2013-05-03 22:27:00,
2013-05-03 18:32:00,61.5,32.9,30.33,SW,230,2.0,5.0,34,0.00,,,0.00,meteohub,2013-05-03 22:32:00,
2013-05-03 18:37:00,60.4,31.3,30.33,WSW,239,2.0,5.0,33,0.00,,,0.00,meteohub,2013-05-03 22:37:00,
2013-05-03 18:42:00,60.1,31.6,30.33,SW,228,4.0,4.0,34,0.00,,,0.00,meteohub,2013-05-03 22:42:00,
2013-05-03 18:47:00,59.9,32.2,30.33,South,189,1.0,4.0,35,0.00,,,0.00,meteohub,2013-05-03 22:47:00,
2013-05-03 18:52:00,59.5,33.3,30.33,WSW,239,3.0,4.0,37,0.00,,,0.00,meteohub,2013-05-03 22:52:00,
2013-05-03 18:57:00,59.4,32.4,30.33,WSW,245,0.0,5.0,36,0.00,,,0.00,meteohub,2013-05-03 22:57:00,
2013-05-03 19:02:00,58.6,32.4,30.33,SW,227,3.0,5.0,37,0.00,,,0.00,meteohub,2013-05-03 23:02:00,
2013-05-03 19:07:00,59.2,31.5,30.33,SW,231,1.0,5.0,35,0.00,,,0.00,meteohub,2013-05-03 23:07:00,
2013-05-03 19:12:00,59.2,31.5,30.33,WSW,244,2.0,4.0,35,0.00,,,0.00,meteohub,2013-05-03 23:12:00,
2013-05-03 19:17:00,59.7,31.3,30.33,WSW,244,1.0,4.0,34,0.00,,,0.00,meteohub,2013-05-03 23:17:00,
2013-05-03 19:22:00,59.7,32.7,30.34,South,179,0.0,4.0,36,0.00,,,0.00,meteohub,2013-05-03 23:22:00,
2013-05-03 19:27:00,59.0,34.2,30.34,South,174,4.0,4.0,39,0.00,,,0.00,meteohub,2013-05-03 23:27:00,
2013-05-03 19:32:00,59.5,30.4,30.34,West,270,3.0,9.0,33,0.00,,,0.00,meteohub,2013-05-03 23:32:00,
2013-05-03 19:37:00,59.4,32.4,30.34,WSW,251,0.0,9.0,36,0.00,,,0.00,meteohub,2013-05-03 23:37:00,
2013-05-03 19:42:00,58.8,31.3,30.34,WSW,251,0.0,9.0,35,0.00,,,0.00,meteohub,2013-05-03 23:42:00,
2013-05-03 19:47:00,58.5,32.9,30.34,SSW,200,1.0,4.0,38,0.00,,,0.00,meteohub,2013-05-03 23:47:00,
2013-05-03 19:52:00,57.9,33.1,30.34,WSW,250,0.0,2.0,39,0.00,,,0.00,meteohub,2013-05-03 23:52:00,
2013-05-03 19:57:00,57.4,32.0,30.34,WSW,250,0.0,2.0,38,0.00,,,0.00,meteohub,2013-05-03 23:57:00,
2013-05-03 20:02:00,56.8,34.0,30.34,WSW,250,0.0,2.0,42,0.00,,,0.00,meteohub,2013-05-04 00:02:00,
2013-05-03 20:07:00,56.1,34.5,30.34,SW,224,0.0,2.0,44,0.00,,,0.00,meteohub,2013-05-04 00:07:00,
2013-05-03 20:12:00,55.2,34.2,30.34,SW,224,0.0,3.0,45,0.00,,,0.00,meteohub,2013-05-04 00:12:00,
2013-05-03 20:18:00,54.7,33.8,30.35,SW,224,1.0,3.0,45,0.00,,,0.00,meteohub,2013-05-04 00:18:00,
2013-05-03 20:23:00,54.1,33.3,30.35,SW,224,0.0,3.0,45,0.00,,,0.00,meteohub,2013-05-04 00:23:00,
2013-05-03 20:28:00,53.4,33.6,30.35,SW,224,0.0,1.0,47,0.00,,,0.00,meteohub,2013-05-04 00:28:00,
2013-05-03 20:33:00,52.9,34.2,30.35,SW,224,0.0,1.0,49,0.00,,,0.00,meteohub,2013-05-04 00:33:00,
2013-05-03 20:38:00,52.3,34.7,30.35,SW,224,0.0,1.0,51,0.00,,,0.00,meteohub,2013-05-04 00:38:00,
2013-05-03 20:43:00,51.6,34.5,30.35,SW,224,0.0,1.0,52,0.00,,,0.00,meteohub,2013-05-04 00:43:00,
2013-05-03 20:49:00,51.1,34.0,30.35,SW,224,0.0,1.0,52,0.00,,,0.00,meteohub,2013-05-04 00:49:00,
2013-05-03 20:54:00,50.7,34.7,30.36,SW,224,0.0,2.0,54,0.00,,,0.00,meteohub,2013-05-04 00:54:00,
2013-05-03 20:59:00,50.2,35.1,30.35,SW,224,0.0,2.0,56,0.00,,,0.00,meteohub,2013-05-04 00:59:00,
2013-05-03 21:04:00,49.6,34.5,30.36,SW,224,0.0,1.0,56,0.00,,,0.00,meteohub,2013-05-04 01:04:00,
2013-05-03 21:09:00,49.5,35.2,30.36,SW,224,0.0,0.0,58,0.00,,,0.00,meteohub,2013-05-04 01:09:00,
2013-05-03 21:14:00,49.1,35.4,30.36,SW,224,0.0,0.0,59,0.00,,,0.00,meteohub,2013-05-04 01:14:00,
2013-05-03 21:19:00,48.6,35.2,30.36,SW,224,0.0,0.0,60,0.00,,,0.00,meteohub,2013-05-04 01:19:00,
2013-05-03 21:25:00,48.4,35.6,30.36,SW,224,0.0,0.0,61,0.00,,,0.00,meteohub,2013-05-04 01:25:00,
2013-05-03 21:30:00,48.0,35.6,30.36,SW,224,0.0,0.0,62,0.00,,,0.00,meteohub,2013-05-04 01:30:00,
2013-05-03 21:35:00,47.7,34.9,30.37,SW,224,0.0,0.0,61,0.00,,,0.00,meteohub,2013-05-04 01:35:00,
2013-05-03 21:40:00,47.1,35.2,30.37,SW,224,1.0,1.0,63,0.00,,,0.00,meteohub,2013-05-04 01:40:00,
2013-05-03 21:45:00,47.3,35.4,30.37,SW,224,0.0,1.0,63,0.00,,,0.00,meteohub,2013-05-04 01:45:00,
2013-05-03 21:50:00,46.9,34.5,30.37,SW,224,2.0,2.0,62,0.00,,,0.00,meteohub,2013-05-04 01:50:00,
2013-05-03 21:55:00,47.1,35.2,30.37,SW,224,0.0,3.0,63,0.00,,,0.00,meteohub,2013-05-04 01:55:00,
2013-05-03 22:00:00,46.8,35.6,30.37,SW,224,0.0,3.0,65,0.00,,,0.00,meteohub,2013-05-04 02:00:00,
2013-05-03 22:05:00,46.4,34.9,30.37,SW,224,0.0,2.0,64,0.00,,,0.00,meteohub,2013-05-04 02:05:00,
2013-05-03 22:10:00,45.9,34.7,30.37,SW,224,0.0,1.0,65,0.00,,,0.00,meteohub,2013-05-04 02:10:00,
2013-05-03 22:15:00,45.7,35.4,30.38,SW,224,0.0,1.0,67,0.00,,,0.00,meteohub,2013-05-04 02:15:00,
2013-05-03 22:21:00,45.3,35.4,30.37,SW,224,0.0,1.0,68,0.00,,,0.00,meteohub,2013-05-04 02:21:00,
2013-05-03 22:26:00,45.1,34.9,30.38,SW,224,0.0,1.0,67,0.00,,,0.00,meteohub,2013-05-04 02:26:00,
2013-05-03 22:31:00,44.8,35.6,30.38,SW,224,0.0,1.0,70,0.00,,,0.00,meteohub,2013-05-04 02:31:00,
2013-05-03 22:36:00,44.6,34.7,30.38,SW,224,0.0,1.0,68,0.00,,,0.00,meteohub,2013-05-04 02:36:00,
2013-05-03 22:41:00,44.6,35.4,30.38,SW,224,0.0,1.0,70,0.00,,,0.00,meteohub,2013-05-04 02:41:00,
2013-05-03 22:46:00,44.4,35.2,30.38,SW,224,0.0,1.0,70,0.00,,,0.00,meteohub,2013-05-04 02:46:00,
2013-05-03 22:51:00,44.2,35.4,30.37,SW,224,0.0,1.0,71,0.00,,,0.00,meteohub,2013-05-04 02:51:00,
2013-05-03 22:56:00,44.1,35.6,30.37,SW,224,0.0,1.0,72,0.00,,,0.00,meteohub,2013-05-04 02:56:00,
2013-05-03 23:01:00,43.9,35.4,30.37,SW,224,0.0,1.0,72,0.00,,,0.00,meteohub,2013-05-04 03:01:00,
2013-05-03 23:07:00,43.9,35.8,30.38,SW,224,0.0,0.0,73,0.00,,,0.00,meteohub,2013-05-04 03:07:00,
2013-05-03 23:12:00,43.5,35.1,30.38,SW,224,0.0,0.0,72,0.00,,,0.00,meteohub,2013-05-04 03:12:00,
2013-05-03 23:17:00,43.3,35.2,30.38,SW,224,0.0,1.0,73,0.00,,,0.00,meteohub,2013-05-04 03:17:00,
2013-05-03 23:22:00,43.2,35.4,30.38,SW,224,0.0,1.0,74,0.00,,,0.00,meteohub,2013-05-04 03:22:00,
2013-05-03 23:27:00,43.0,35.2,30.38,SW,224,0.0,1.0,74,0.00,,,0.00,meteohub,2013-05-04 03:27:00,
2013-05-03 23:32:00,42.6,35.2,30.38,SW,224,0.0,1.0,75,0.00,,,0.00,meteohub,2013-05-04 03:32:00,
2013-05-03 23:37:00,42.4,35.1,30.38,SW,224,0.0,1.0,75,0.00,,,0.00,meteohub,2013-05-04 03:37:00,
2013-05-03 23:42:00,42.3,35.2,30.38,SW,224,0.0,1.0,76,0.00,,,0.00,meteohub,2013-05-04 03:42:00,
2013-05-03 23:47:00,42.1,35.4,30.38,SW,224,0.0,1.0,77,0.00,,,0.00,meteohub,2013-05-04 03:47:00,
2013-05-03 23:52:00,42.1,35.8,30.38,SW,224,0.0,1.0,78,0.00,,,0.00,meteohub,2013-05-04 03:52:00,
2013-05-03 23:57:00,41.7,35.4,30.38,SW,224,0.0,1.0,78,0.00,,,0.00,meteohub,2013-05-04 03:57:00,